Time;durP1;ratioP1;P1;durP2;ratioP2;P2;SDS_P1;SDS_P2;PMS_P1;PMS_P2;Temp;Humidity;BMP_temperature;BMP_pressure;BME280_temperature;BME280_humidity;BME280_pressure;Samples;Min_cycle;Max_cycle;Signal;HPM_P1;HPM_P2
2023/11/28 00:00:37;;;;;;;7.70;4.80;;;;;;;-2.66;79.23;97521.66;105571;1254;72619;-28
2023/11/28 00:03:04;;;;;;;11.20;6.50;;;;;;;-2.83;80.70;97523.38;105690;1254;61005;-27
2023/11/28 00:05:31;;;;;;;10.50;5.80;;;;;;;-2.93;81.42;97523.23;105571;1258;61115;-27
2023/11/28 00:08:00;;;;;;;12.20;5.90;;;;;;;-2.32;80.50;97521.73;105681;1251;72930;-28
2023/11/28 00:10:27;;;;;;;9.60;6.30;;;;;;;-1.42;78.35;97524.84;105630;1250;74391;-26
2023/11/28 00:12:56;;;;;;;10.30;6.80;;;;;;;-1.14;75.43;97529.40;105795;1250;72471;-27
2023/11/28 00:15:23;;;;;;;12.20;7.30;;;;;;;-1.24;74.88;97530.65;105699;1254;61065;-28
2023/11/28 00:17:52;;;;;;;8.90;5.90;;;;;;;-1.43;75.09;97531.87;105665;1250;61049;-28
2023/11/28 00:20:20;;;;;;;9.80;5.50;;;;;;;-1.75;75.57;97531.29;105563;1250;73720;-27
2023/11/28 00:22:47;;;;;;;9.60;5.50;;;;;;;-2.00;76.66;97532.79;105836;1250;74672;-28
2023/11/28 00:25:18;;;;;;;7.20;5.00;;;;;;;-2.16;77.29;97531.60;105731;1250;72617;-27
2023/11/28 00:27:45;;;;;;;11.70;6.10;;;;;;;-2.29;77.46;97533.01;105821;1250;61173;-27
2023/11/28 00:30:15;;;;;;;8.30;5.00;;;;;;;-2.40;77.75;97529.68;105552;1259;61176;-27
2023/11/28 00:32:43;;;;;;;5.30;3.30;;;;;;;-2.58;78.40;97528.58;105772;1251;73869;-28
2023/11/28 00:35:10;;;;;;;5.00;2.80;;;;;;;-2.71;79.26;97523.30;105684;1253;73102;-27
2023/11/28 00:37:38;;;;;;;7.10;2.70;;;;;;;-2.22;79.07;97525.30;105524;1253;73155;-27
2023/11/28 00:40:11;;;;;;;6.30;3.20;;;;;;;-1.63;76.79;97524.45;105701;1250;61066;-28
2023/11/28 00:42:40;;;;;;;4.60;2.60;;;;;;;-1.44;75.40;97520.52;105539;1258;61181;-28
2023/11/28 00:45:08;;;;;;;5.30;2.80;;;;;;;-1.65;75.41;97521.39;105834;1250;73577;-27
2023/11/28 00:47:38;;;;;;;5.30;2.90;;;;;;;-1.85;75.64;97519.58;105782;1257;74621;-28
2023/11/28 00:50:06;;;;;;;4.60;3.00;;;;;;;-2.08;76.36;97521.13;105776;1250;72620;-27
2023/11/28 00:52:34;;;;;;;4.30;3.10;;;;;;;-2.32;77.19;97519.20;105521;1251;61079;-28
2023/11/28 00:55:01;;;;;;;5.00;3.40;;;;;;;-2.45;77.47;97522.62;105701;1256;61297;-28
2023/11/28 00:57:28;;;;;;;5.60;3.10;;;;;;;-2.57;77.90;97522.57;105682;1250;73647;-27
2023/11/28 00:59:55;;;;;;;4.60;2.60;;;;;;;-2.71;78.55;97522.10;105814;1255;74127;-28
2023/11/28 01:02:22;;;;;;;4.40;2.40;;;;;;;-2.27;77.71;97526.77;105939;1251;72568;-28
2023/11/28 01:04:49;;;;;;;4.30;2.80;;;;;;;-1.63;74.90;97527.72;105702;1253;61088;-28
2023/11/28 01:07:17;;;;;;;5.50;2.70;;;;;;;-1.48;74.22;97535.72;105500;1252;61727;-28
2023/11/28 01:09:44;;;;;;;4.60;3.30;;;;;;;-1.60;74.18;97536.04;105705;1250;74389;-28
2023/11/28 01:12:12;;;;;;;4.20;2.90;;;;;;;-1.80;74.32;97531.69;105729;1250;74238;-28
2023/11/28 01:14:38;;;;;;;5.00;3.30;;;;;;;-1.97;74.63;97533.85;105726;1251;72634;-27
2023/11/28 01:17:06;;;;;;;6.40;3.20;;;;;;;-2.18;75.12;97541.09;105668;1250;61236;-27
2023/11/28 01:19:34;;;;;;;7.00;3.20;;;;;;;-2.40;75.75;97540.86;105720;1254;61119;-27
2023/11/28 01:22:01;;;;;;;6.10;3.50;;;;;;;-2.56;75.94;97541.54;105555;1250;73646;-28
2023/11/28 01:24:29;;;;;;;3.70;2.50;;;;;;;-2.66;76.78;97541.05;105589;1250;74335;-28
2023/11/28 01:26:56;;;;;;;5.60;3.20;;;;;;;-1.98;75.77;97540.69;105623;1253;72659;-28
2023/11/28 01:29:24;;;;;;;5.40;3.50;;;;;;;-1.44;73.90;97536.53;105685;1250;61155;-28
2023/11/28 01:31:51;;;;;;;5.10;3.60;;;;;;;-1.38;73.19;97534.86;105730;1256;61048;-28
2023/11/28 01:34:19;;;;;;;4.30;3.20;;;;;;;-1.63;72.84;97526.36;105604;1250;73929;-27
2023/11/28 01:36:46;;;;;;;5.00;3.40;;;;;;;-1.86;73.52;97531.36;105581;1251;74275;-28
2023/11/28 01:39:15;;;;;;;5.10;2.80;;;;;;;-2.14;73.63;97527.94;105824;1251;72368;-27
2023/11/28 01:41:46;;;;;;;2.90;2.50;;;;;;;-2.41;74.52;97523.06;105670;1253;61758;-28
2023/11/28 01:44:13;;;;;;;8.20;3.70;;;;;;;-2.69;75.12;97513.66;105363;1251;61185;-28
2023/11/28 01:46:40;;;;;;;5.90;3.90;;;;;;;-2.90;75.65;97508.09;105739;1251;73767;-27
2023/11/28 01:49:07;;;;;;;7.00;3.60;;;;;;;-3.11;75.56;97505.91;105551;1256;74314;-28
2023/11/28 01:51:37;;;;;;;10.00;4.40;;;;;;;-3.33;76.26;97502.61;105606;1253;72643;-27
2023/11/28 01:54:05;;;;;;;5.60;3.10;;;;;;;-3.25;76.63;97504.06;105570;1256;61626;-28
2023/11/28 01:56:32;;;;;;;5.50;3.40;;;;;;;-2.44;75.52;97509.99;105483;1251;61234;-27
2023/11/28 01:59:00;;;;;;;6.40;3.30;;;;;;;-2.06;73.32;97508.30;105628;1250;73673;-28
2023/11/28 02:01:27;;;;;;;8.50;4.40;;;;;;;-2.18;73.19;97509.27;105741;1256;74716;-28
2023/11/28 02:03:57;;;;;;;5.90;3.40;;;;;;;-2.48;73.53;97511.56;105699;1251;72537;-28
2023/11/28 02:06:51;;;;;;;7.20;4.40;;;;;;;-2.87;74.00;97509.83;103117;1288;600849;-27
2023/11/28 02:09:18;;;;;;;8.50;4.50;;;;;;;-3.20;74.41;97520.30;104840;1269;61176;-27
2023/11/28 02:11:46;;;;;;;8.80;4.40;;;;;;;-3.49;74.95;97526.31;104788;1267;61110;-28
2023/11/28 02:14:14;;;;;;;8.80;3.50;;;;;;;-3.75;75.66;97533.82;104787;1272;71114;-27
2023/11/28 02:16:42;;;;;;;7.30;3.90;;;;;;;-4.00;76.63;97533.63;104811;1267;74209;-27
2023/11/28 02:19:10;;;;;;;8.00;3.70;;;;;;;-4.20;76.93;97535.52;104792;1272;70783;-28
2023/11/28 02:29:18;;;;;;;6.40;4.10;;;;;;;-3.16;75.71;97540.80;102631;1295;599984;-30
2023/11/28 02:31:46;;;;;;;8.20;4.40;;;;;;;-3.28;75.39;97548.85;104823;1272;61192;-29
2023/11/28 02:42:02;;;;;;;8.10;4.70;;;;;;;-4.30;78.94;97552.41;102731;1295;600227;-28
2023/11/28 02:44:30;;;;;;;4.90;3.40;;;;;;;-4.49;80.15;97552.25;104813;1269;61260;-27
2023/11/28 02:46:57;;;;;;;11.00;4.00;;;;;;;-4.66;80.92;97546.70;104856;1264;61116;-29
2023/11/28 02:49:25;;;;;;;6.30;3.90;;;;;;;-4.45;80.75;97543.26;104822;1264;72203;-28
2023/11/28 02:59:38;;;;;;;7.00;4.10;;;;;;;-3.70;76.47;97544.60;102635;1293;600683;-29
2023/11/28 03:02:06;;;;;;;6.50;3.70;;;;;;;-3.97;77.26;97547.05;105073;1265;61169;-28
2023/11/28 03:04:35;;;;;;;7.00;4.70;;;;;;;-4.12;78.01;97551.98;105113;1267;61069;-27
2023/11/28 03:07:03;;;;;;;8.90;4.90;;;;;;;-4.42;79.06;97553.65;105057;1269;72177;-29
2023/11/28 03:09:31;;;;;;;10.70;4.70;;;;;;;-4.36;78.70;97556.44;104840;1270;72998;-26
2023/11/28 03:11:58;;;;;;;7.90;4.40;;;;;;;-3.71;77.49;97553.83;104859;1267;71735;-26
2023/11/28 03:14:27;;;;;;;8.80;4.70;;;;;;;-3.34;75.74;97555.46;102627;1263;3476789;-27
2023/11/28 03:16:55;;;;;;;7.90;4.30;;;;;;;-3.45;75.37;97553.08;105122;1264;61199;-26
2023/11/28 03:19:23;;;;;;;8.30;4.60;;;;;;;-3.55;75.47;97550.15;105258;1264;70204;-26
2023/11/28 03:21:51;;;;;;;9.80;4.90;;;;;;;-3.83;76.71;97547.11;105293;1264;74285;-26
2023/11/28 03:24:19;;;;;;;9.90;4.70;;;;;;;-4.01;77.40;97546.73;105113;1269;71609;-26
2023/11/28 03:26:47;;;;;;;9.30;5.10;;;;;;;-4.21;78.31;97545.41;105024;1266;61241;-27
2023/11/28 03:29:15;;;;;;;7.80;4.40;;;;;;;-4.36;78.78;97547.42;105176;1263;61173;-26
2023/11/28 03:39:31;;;;;;;6.40;4.40;;;;;;;-3.33;75.06;97541.83;102502;1291;601089;-28
2023/11/28 03:49:38;;;;;;;9.50;5.20;;;;;;;-4.03;77.66;97532.74;102606;1294;599529;-28
2023/11/28 03:52:05;;;;;;;6.80;4.20;;;;;;;-4.06;77.56;97535.23;104788;1273;61187;-27
2023/11/28 04:02:13;;;;;;;7.30;4.40;;;;;;;-2.90;74.19;97539.52;102644;1292;599457;-28
2023/11/28 04:04:42;;;;;;;7.70;5.40;;;;;;;-3.05;74.06;97535.18;104825;1270;61193;-28
2023/11/28 04:07:11;;;;;;;8.40;5.10;;;;;;;-3.11;74.27;97536.15;104869;1267;61237;-28
2023/11/28 04:09:41;;;;;;;8.40;3.20;;;;;;;-3.45;74.98;97530.84;104865;1272;72263;-27
2023/11/28 04:20:13;;;;;;;6.20;4.00;;;;;;;-4.02;77.93;97533.55;102511;1294;615204;-27
2023/11/28 04:22:40;;;;;;;7.70;4.70;;;;;;;-3.91;78.32;97541.50;105061;1267;61075;-27
2023/11/28 04:25:08;;;;;;;5.90;4.50;;;;;;;-3.27;75.87;97540.66;104886;1265;61183;-28
2023/11/28 04:27:35;;;;;;;8.10;5.50;;;;;;;-2.94;74.17;97546.39;105490;1260;72379;-27
2023/11/28 04:30:03;;;;;;;7.40;4.00;;;;;;;-2.89;74.23;97550.50;105463;1260;74169;-27
2023/11/28 04:32:31;;;;;;;8.70;5.70;;;;;;;-3.11;74.16;97547.51;102714;1264;3504145;-27
2023/11/28 04:34:59;;;;;;;7.50;5.00;;;;;;;-3.18;74.44;97541.75;105327;1264;61360;-27
2023/11/28 04:37:26;;;;;;;5.80;3.70;;;;;;;-3.45;75.23;97543.55;105480;1257;61696;-27
2023/11/28 04:39:54;;;;;;;8.70;4.20;;;;;;;-3.63;76.42;97543.58;105597;1257;71910;-27
2023/11/28 04:42:21;;;;;;;13.30;6.60;;;;;;;-3.83;77.11;97542.48;105646;1257;74421;-27
2023/11/28 04:44:48;;;;;;;5.90;3.90;;;;;;;-3.68;77.23;97543.80;105591;1257;72681;-27
2023/11/28 04:47:16;;;;;;;7.50;4.60;;;;;;;-3.04;75.11;97543.97;105602;1257;61091;-27
2023/11/28 04:49:44;;;;;;;7.30;4.80;;;;;;;-2.70;73.66;97544.98;105259;1257;61281;-28
2023/11/28 04:52:12;;;;;;;7.90;5.20;;;;;;;-2.66;73.26;97547.84;105293;1259;72925;-27
2023/11/28 04:54:39;;;;;;;8.00;5.00;;;;;;;-2.75;73.03;97543.02;105492;1257;74299;-27
2023/11/28 04:57:06;;;;;;;8.50;5.90;;;;;;;-2.92;73.36;97541.64;105314;1258;72519;-27
2023/11/28 04:59:33;;;;;;;10.40;6.30;;;;;;;-3.11;73.53;97541.77;105587;1258;61181;-27
2023/11/28 05:02:00;;;;;;;12.20;6.60;;;;;;;-3.32;73.77;97540.42;105484;1258;61118;-27
2023/11/28 05:04:27;;;;;;;8.70;5.70;;;;;;;-3.56;73.97;97543.59;105579;1257;73555;-27
2023/11/28 05:06:55;;;;;;;10.00;5.90;;;;;;;-3.81;74.51;97549.53;105547;1257;74854;-27
2023/11/28 05:09:22;;;;;;;9.20;5.10;;;;;;;-4.04;74.85;97554.67;105534;1258;72494;-27
2023/11/28 05:11:49;;;;;;;8.00;5.60;;;;;;;-4.27;75.18;97550.11;105573;1257;61055;-27
2023/11/28 05:14:17;;;;;;;9.20;4.90;;;;;;;-4.45;75.58;97551.24;105557;1262;61173;-27
2023/11/28 05:16:44;;;;;;;5.40;3.70;;;;;;;-3.99;75.89;97547.63;105503;1259;72732;-27
2023/11/28 05:19:20;;;;;;;5.90;3.90;;;;;;;-3.21;74.37;97548.70;105624;1257;74186;-28
2023/11/28 05:21:47;;;;;;;7.50;4.70;;;;;;;-3.06;73.65;97549.14;105413;1258;72545;-28
2023/11/28 05:24:14;;;;;;;7.40;4.90;;;;;;;-3.21;73.39;97549.02;105331;1257;61097;-27
2023/11/28 05:26:41;;;;;;;5.60;4.10;;;;;;;-3.46;73.53;97551.95;105671;1256;61089;-27
2023/11/28 05:29:08;;;;;;;7.30;4.60;;;;;;;-3.74;74.46;97549.39;105464;1257;73685;-27
2023/11/28 05:31:36;;;;;;;7.90;4.00;;;;;;;-4.01;74.75;97550.59;105456;1258;74351;-27
2023/11/28 05:34:03;;;;;;;5.40;3.30;;;;;;;-4.26;75.19;97547.81;105642;1256;73074;-27
2023/11/28 05:36:31;;;;;;;5.80;4.70;;;;;;;-4.48;76.03;97547.98;105258;1257;61144;-27
2023/11/28 05:38:59;;;;;;;7.30;4.70;;;;;;;-4.69;76.43;97548.39;105577;1260;61106;-27
2023/11/28 05:41:27;;;;;;;6.70;4.60;;;;;;;-4.89;76.54;97547.36;105258;1263;72664;-27
2023/11/28 05:43:54;;;;;;;7.50;4.40;;;;;;;-5.05;77.49;97546.69;105312;1258;74492;-27
2023/11/28 05:46:21;;;;;;;8.40;5.20;;;;;;;-4.59;77.63;97550.63;105238;1257;72752;-28
2023/11/28 05:48:48;;;;;;;8.40;5.50;;;;;;;-3.78;75.66;97554.65;105607;1257;61145;-27
2023/11/28 05:51:16;;;;;;;7.30;4.80;;;;;;;-3.55;74.72;97558.86;105507;1263;61198;-27
2023/11/28 05:53:43;;;;;;;11.70;5.00;;;;;;;-3.68;74.44;97557.89;105552;1257;72884;-27
2023/11/28 05:56:11;;;;;;;6.00;3.90;;;;;;;-3.93;75.34;97563.13;105320;1258;74490;-27
2023/11/28 05:58:39;;;;;;;5.90;2.80;;;;;;;-4.18;75.71;97561.73;105623;1257;72676;-27
2023/11/28 06:01:06;;;;;;;4.30;2.90;;;;;;;-4.41;76.51;97563.24;105667;1256;61096;-27
2023/11/28 06:03:34;;;;;;;8.70;4.40;;;;;;;-4.58;77.20;97565.00;105482;1256;61116;-27
2023/11/28 06:06:03;;;;;;;5.00;2.70;;;;;;;-4.73;77.63;97565.13;105560;1257;72091;-27
2023/11/28 06:08:30;;;;;;;5.10;3.30;;;;;;;-4.85;78.33;97571.27;105614;1257;74339;-27
2023/11/28 06:10:57;;;;;;;3.60;1.90;;;;;;;-4.64;78.57;97569.98;105561;1257;72758;-27
2023/11/28 06:13:24;;;;;;;5.80;3.70;;;;;;;-3.83;77.36;97565.73;105529;1257;61087;-28
2023/11/28 06:15:51;;;;;;;4.90;3.50;;;;;;;-3.49;75.47;97566.02;105547;1260;61147;-27
2023/11/28 06:18:19;;;;;;;6.30;4.90;;;;;;;-3.56;74.91;97570.09;105366;1257;73553;-27
2023/11/28 06:20:46;;;;;;;8.10;3.90;;;;;;;-3.74;75.01;97570.73;105546;1262;73013;-27
2023/11/28 06:23:14;;;;;;;6.80;4.30;;;;;;;-3.94;75.58;97568.45;105596;1257;71848;-27
2023/11/28 06:25:45;;;;;;;5.80;3.70;;;;;;;-4.11;75.70;97565.47;105545;1257;61071;-27
2023/11/28 06:28:12;;;;;;;5.30;3.00;;;;;;;-4.23;76.12;97565.86;105156;1263;61117;-27
2023/11/28 06:30:39;;;;;;;10.80;4.70;;;;;;;-4.38;76.93;97566.52;105445;1258;73011;-27
2023/11/28 06:33:06;;;;;;;7.30;4.70;;;;;;;-4.44;77.16;97565.25;105579;1256;74219;-27
2023/11/28 06:35:34;;;;;;;7.00;4.20;;;;;;;-4.45;77.71;97560.38;105454;1263;73267;-27
2023/11/28 06:38:02;;;;;;;8.80;4.50;;;;;;;-3.88;78.34;97553.73;105362;1257;61074;-27
2023/11/28 06:40:29;;;;;;;7.50;4.60;;;;;;;-2.91;76.34;97548.41;105583;1257;61184;-28
2023/11/28 06:42:58;;;;;;;5.90;4.20;;;;;;;-2.53;74.98;97539.67;105485;1260;72896;-27
2023/11/28 06:45:25;;;;;;;4.60;3.20;;;;;;;-2.53;74.21;97540.67;105523;1257;74400;-27
2023/11/28 06:47:53;;;;;;;7.90;5.10;;;;;;;-2.64;74.24;97539.40;105505;1257;73235;-27
2023/11/28 06:50:20;;;;;;;7.60;4.50;;;;;;;-2.77;74.41;97536.16;105646;1260;61058;-27
2023/11/28 06:52:47;;;;;;;6.60;3.70;;;;;;;-2.88;74.72;97539.94;105659;1256;61220;-28
2023/11/28 06:55:15;;;;;;;7.00;4.50;;;;;;;-3.01;75.02;97538.56;105651;1257;73572;-28
2023/11/28 06:57:45;;;;;;;9.20;5.40;;;;;;;-3.12;75.31;97538.60;105662;1257;74516;-27
2023/11/28 07:00:13;;;;;;;9.10;5.80;;;;;;;-3.24;75.52;97539.34;105347;1257;72795;-28
2023/11/28 07:02:40;;;;;;;8.80;5.50;;;;;;;-3.30;75.89;97539.14;105127;1264;62025;-28
2023/11/28 07:05:08;;;;;;;11.50;5.10;;;;;;;-2.73;75.87;97541.37;105326;1258;61183;-27
2023/11/28 07:07:35;;;;;;;13.80;6.40;;;;;;;-1.91;73.34;97544.36;105573;1258;71761;-28
2023/11/28 07:10:05;;;;;;;19.10;10.20;;;;;;;-1.64;72.19;97542.39;105671;1257;74395;-28
2023/11/28 07:12:33;;;;;;;21.00;10.10;;;;;;;-1.67;71.94;97542.05;105565;1257;72533;-27
2023/11/28 07:15:00;;;;;;;26.30;11.40;;;;;;;-1.87;71.82;97544.17;105452;1257;61042;-28
2023/11/28 07:17:27;;;;;;;26.70;12.20;;;;;;;-2.09;72.02;97543.13;105477;1258;61126;-28
2023/11/28 07:19:54;;;;;;;30.20;15.40;;;;;;;-2.26;72.55;97545.42;105278;1257;72881;-28
2023/11/28 07:22:22;;;;;;;25.10;13.30;;;;;;;-2.44;72.91;97545.53;105555;1257;74496;-28
2023/11/28 07:24:49;;;;;;;22.50;12.00;;;;;;;-2.64;73.49;97540.22;105669;1257;72218;-28
2023/11/28 07:27:15;;;;;;;16.50;8.10;;;;;;;-2.75;73.94;97543.67;105685;1257;61183;-27
2023/11/28 07:29:42;;;;;;;10.80;6.90;;;;;;;-2.83;74.63;97544.75;105611;1257;61021;-28
2023/11/28 07:32:09;;;;;;;9.80;5.30;;;;;;;-2.61;75.02;97542.78;105657;1257;72842;-28
2023/11/28 07:34:38;;;;;;;11.20;6.60;;;;;;;-1.70;72.61;97541.20;105586;1258;74113;-28
2023/11/28 07:37:05;;;;;;;13.70;7.20;;;;;;;-1.20;70.97;97536.76;105336;1257;72492;-28
2023/11/28 07:39:32;;;;;;;12.70;7.50;;;;;;;-1.18;70.06;97530.79;105631;1257;61057;-28
2023/11/28 07:41:59;;;;;;;12.60;7.70;;;;;;;-1.36;69.75;97531.17;105651;1257;61135;-28
2023/11/28 07:44:29;;;;;;;10.00;6.60;;;;;;;-1.60;70.15;97533.66;105293;1258;73448;-28
2023/11/28 07:46:56;;;;;;;13.40;8.20;;;;;;;-1.84;70.60;97536.18;105465;1257;73790;-28
2023/11/28 07:49:23;;;;;;;8.70;5.20;;;;;;;-2.06;71.27;97533.61;105506;1257;72715;-28
2023/11/28 07:51:50;;;;;;;9.90;6.30;;;;;;;-2.29;72.23;97532.48;105513;1257;61084;-28
2023/11/28 07:54:17;;;;;;;12.00;7.60;;;;;;;-2.44;72.90;97529.16;105392;1260;61147;-28
2023/11/28 07:56:44;;;;;;;12.20;7.50;;;;;;;-2.54;73.42;97524.61;105379;1257;73147;-27
2023/11/28 07:59:11;;;;;;;8.20;4.80;;;;;;;-2.54;73.84;97523.55;105472;1260;74856;-28
2023/11/28 08:01:38;;;;;;;10.00;6.50;;;;;;;-1.77;72.75;97526.78;105421;1256;72716;-28
2023/11/28 08:04:06;;;;;;;10.10;4.70;;;;;;;-1.17;70.66;97526.64;105430;1258;61075;-27
2023/11/28 08:06:34;;;;;;;13.50;8.10;;;;;;;-1.10;69.39;97527.61;105553;1262;61186;-28
2023/11/28 08:09:01;;;;;;;10.40;6.70;;;;;;;-1.21;69.88;97523.48;105620;1257;72984;-28
2023/11/28 08:11:28;;;;;;;14.90;9.10;;;;;;;-1.37;70.16;97519.63;105651;1257;73486;-27
2023/11/28 08:13:55;;;;;;;12.30;7.50;;;;;;;-1.53;70.28;97513.21;105545;1257;73093;-28
2023/11/28 08:16:23;;;;;;;8.30;4.90;;;;;;;-1.70;70.40;97505.95;105454;1257;60971;-28
2023/11/28 08:18:50;;;;;;;8.50;5.50;;;;;;;-1.81;70.98;97499.80;105378;1260;61161;-28
2023/11/28 08:21:17;;;;;;;11.50;6.20;;;;;;;-1.93;71.43;97498.73;105392;1257;72597;-27
2023/11/28 08:23:45;;;;;;;10.70;6.30;;;;;;;-2.05;72.01;97499.92;105353;1256;74178;-27
2023/11/28 08:26:14;;;;;;;11.10;6.50;;;;;;;-2.15;72.19;97501.11;105575;1258;72660;-27
2023/11/28 08:28:41;;;;;;;8.00;4.90;;;;;;;-2.16;72.79;97496.57;105669;1257;61046;-28
2023/11/28 08:31:09;;;;;;;9.30;5.50;;;;;;;-1.48;71.74;97492.02;105497;1261;61070;-27
2023/11/28 08:33:36;;;;;;;10.90;5.90;;;;;;;-0.90;69.93;97489.46;105552;1258;75253;-28
2023/11/28 08:36:05;;;;;;;7.90;5.40;;;;;;;-0.77;68.85;97483.59;105397;1257;74405;-28
2023/11/28 08:38:32;;;;;;;10.90;6.40;;;;;;;-0.88;68.56;97479.84;105314;1265;72459;-28
2023/11/28 08:40:59;;;;;;;8.80;5.70;;;;;;;-1.05;68.90;97481.66;105382;1257;61058;-27
2023/11/28 08:43:26;;;;;;;7.30;4.60;;;;;;;-1.21;69.06;97485.52;105631;1254;61104;-28
2023/11/28 08:45:53;;;;;;;6.70;4.30;;;;;;;-1.37;69.20;97479.77;105762;1254;72706;-29
2023/11/28 08:48:20;;;;;;;9.40;5.00;;;;;;;-1.45;69.68;97469.38;105726;1253;72930;-28
2023/11/28 08:50:48;;;;;;;8.10;4.90;;;;;;;-1.51;69.78;97466.42;105923;1252;72621;-27
2023/11/28 08:53:15;;;;;;;11.40;7.00;;;;;;;-1.57;69.87;97460.36;105890;1252;61090;-27
2023/11/28 08:55:45;;;;;;;10.00;5.40;;;;;;;-1.59;70.15;97454.01;105856;1254;61112;-27
2023/11/28 08:58:12;;;;;;;5.60;3.40;;;;;;;-1.45;70.50;97452.52;105722;1254;75622;-28
2023/11/28 09:00:40;;;;;;;7.40;4.80;;;;;;;-0.55;69.07;97450.25;105895;1256;74421;-28
2023/11/28 09:03:07;;;;;;;9.30;5.60;;;;;;;0.02;65.91;97446.70;105908;1254;73014;-28
2023/11/28 09:05:34;;;;;;;5.30;3.40;;;;;;;0.17;64.84;97441.15;105694;1254;60991;-28
2023/11/28 09:08:01;;;;;;;9.50;5.20;;;;;;;-0.01;64.77;97433.23;105824;1252;61163;-28
2023/11/28 09:10:29;;;;;;;7.60;5.20;;;;;;;-0.17;65.41;97430.13;105638;1254;73786;-26
2023/11/28 09:12:56;;;;;;;7.90;5.40;;;;;;;-0.31;65.44;97424.52;105839;1254;74417;-28
2023/11/28 09:15:23;;;;;;;6.00;3.90;;;;;;;-0.39;65.89;97423.36;105883;1254;72592;-28
2023/11/28 09:17:50;;;;;;;5.70;3.70;;;;;;;-0.45;66.12;97421.52;105925;1254;61045;-27
2023/11/28 09:20:17;;;;;;;7.10;5.10;;;;;;;-0.52;65.68;97418.66;105750;1257;61121;-28
2023/11/28 09:22:46;;;;;;;8.00;4.90;;;;;;;-0.62;65.77;97410.08;105913;1254;73655;-27
2023/11/28 09:25:15;;;;;;;5.30;3.60;;;;;;;-0.73;66.06;97410.61;105744;1259;74576;-27
2023/11/28 09:27:42;;;;;;;4.90;3.60;;;;;;;-0.85;65.90;97408.56;105633;1254;72328;-27
2023/11/28 09:30:10;;;;;;;6.60;3.60;;;;;;;-0.94;66.10;97402.48;105840;1253;61078;-28
2023/11/28 09:32:37;;;;;;;7.80;4.70;;;;;;;-1.00;66.44;97394.38;105689;1253;61071;-27
2023/11/28 09:35:06;;;;;;;9.30;5.60;;;;;;;-1.02;66.84;97398.72;105655;1253;74219;-27
2023/11/28 09:37:35;;;;;;;9.10;4.50;;;;;;;-0.97;67.02;97396.91;105726;1258;74358;-28
2023/11/28 09:40:05;;;;;;;8.60;4.40;;;;;;;-0.91;67.16;97394.15;105658;1254;72267;-28
2023/11/28 09:42:34;;;;;;;5.50;3.30;;;;;;;-0.97;66.20;97388.19;105766;1254;61134;-27
2023/11/28 09:45:05;;;;;;;7.30;4.70;;;;;;;-0.91;66.79;97389.86;105673;1257;61165;-27
2023/11/28 09:47:36;;;;;;;12.30;6.50;;;;;;;-0.82;66.19;97386.27;105456;1254;72840;-27
2023/11/28 09:50:12;;;;;;;7.80;3.90;;;;;;;-0.46;66.62;97379.95;105601;1254;74235;-28
2023/11/28 09:52:40;;;;;;;9.00;4.10;;;;;;;0.30;63.14;97369.65;105612;1254;72617;-28
2023/11/28 09:55:08;;;;;;;5.30;3.00;;;;;;;0.49;61.40;97365.64;105539;1254;61858;-28
2023/11/28 09:57:37;;;;;;;6.10;3.20;;;;;;;0.31;61.24;97358.64;105500;1254;61205;-28
2023/11/28 10:00:05;;;;;;;4.90;3.60;;;;;;;0.14;61.29;97359.05;105671;1259;73505;-28
2023/11/28 10:02:37;;;;;;;6.80;4.50;;;;;;;0.02;61.77;97358.86;105722;1260;74339;-28
2023/11/28 10:05:05;;;;;;;7.50;4.40;;;;;;;-0.06;61.98;97352.72;105653;1254;73230;-27
2023/11/28 10:07:33;;;;;;;6.90;5.20;;;;;;;-0.08;62.54;97356.55;105702;1259;61224;-27
2023/11/28 10:10:01;;;;;;;5.10;3.30;;;;;;;0.03;62.35;97356.54;105848;1256;61662;-27
2023/11/28 10:12:28;;;;;;;4.80;3.10;;;;;;;0.08;62.51;97351.97;105494;1254;73811;-28
2023/11/28 10:14:56;;;;;;;3.60;2.50;;;;;;;0.10;62.38;97345.70;105834;1254;74321;-27
2023/11/28 10:17:23;;;;;;;9.10;3.80;;;;;;;0.09;62.42;97344.88;105909;1254;72092;-28
2023/11/28 10:19:51;;;;;;;7.20;3.50;;;;;;;0.12;62.41;97343.63;105975;1254;61189;-28
2023/11/28 10:22:18;;;;;;;7.60;4.20;;;;;;;0.11;61.91;97344.04;105886;1256;61161;-28
2023/11/28 10:24:45;;;;;;;11.20;4.70;;;;;;;0.11;62.23;97336.93;105892;1254;73806;-28
2023/11/28 10:27:12;;;;;;;8.00;4.30;;;;;;;0.08;62.42;97332.63;105675;1254;74732;-28
2023/11/28 10:29:40;;;;;;;8.00;4.20;;;;;;;0.11;62.59;97332.63;105680;1254;72716;-28
2023/11/28 10:32:07;;;;;;;5.70;3.80;;;;;;;0.03;62.77;97330.28;105741;1254;61094;-28
2023/11/28 10:34:36;;;;;;;10.90;5.10;;;;;;;-0.08;63.10;97330.80;105882;1256;61051;-28
2023/11/28 10:37:04;;;;;;;12.00;5.90;;;;;;;-0.19;63.29;97332.04;105824;1254;72525;-27
2023/11/28 10:39:31;;;;;;;9.40;4.70;;;;;;;-0.22;63.73;97329.86;105911;1254;75589;-27
2023/11/28 10:41:58;;;;;;;7.70;4.10;;;;;;;-0.23;64.14;97329.22;105677;1259;72550;-28
2023/11/28 10:44:25;;;;;;;10.60;4.20;;;;;;;-0.28;63.79;97328.00;105925;1254;61104;-27
2023/11/28 10:46:56;;;;;;;13.10;4.60;;;;;;;-0.43;63.87;97326.75;105911;1254;61103;-27
2023/11/28 10:49:23;;;;;;;5.10;3.40;;;;;;;-0.53;64.44;97322.77;105527;1254;73934;-26
2023/11/28 10:51:51;;;;;;;3.70;3.00;;;;;;;-0.61;64.79;97317.50;105759;1254;73169;-26
2023/11/28 10:54:19;;;;;;;4.40;3.10;;;;;;;-0.67;64.64;97312.42;105599;1254;72738;-26
2023/11/28 10:56:50;;;;;;;2.80;2.00;;;;;;;-0.71;64.67;97305.02;105610;1254;61036;-27
2023/11/28 10:59:21;;;;;;;5.80;2.60;;;;;;;-0.69;65.02;97307.23;105711;1252;61232;-27
2023/11/28 11:01:49;;;;;;;6.20;3.80;;;;;;;-0.70;64.73;97305.48;105853;1254;73890;-27
2023/11/28 11:04:16;;;;;;;9.20;4.10;;;;;;;-0.69;65.30;97307.58;105677;1254;74420;-26
2023/11/28 11:06:43;;;;;;;4.20;2.90;;;;;;;-0.66;65.52;97309.14;105864;1255;71868;-27
2023/11/28 11:09:13;;;;;;;6.80;3.60;;;;;;;-0.67;65.25;97310.52;105692;1254;61058;-28
2023/11/28 11:11:41;;;;;;;4.90;3.00;;;;;;;-0.71;65.75;97309.77;105633;1258;61168;-27
2023/11/28 11:14:11;;;;;;;5.40;3.80;;;;;;;-0.74;65.63;97311.47;105629;1254;74209;-26
2023/11/28 11:16:42;;;;;;;6.50;3.60;;;;;;;-0.78;65.63;97314.23;105902;1254;74615;-27
2023/11/28 11:19:09;;;;;;;3.60;2.80;;;;;;;-0.73;65.98;97308.04;105723;1257;73726;-28
2023/11/28 11:21:42;;;;;;;7.30;4.00;;;;;;;-0.70;66.34;97306.14;105698;1254;61135;-26
2023/11/28 11:24:18;;;;;;;10.40;4.50;;;;;;;-0.67;66.20;97307.14;105675;1255;61113;-27
2023/11/28 11:26:46;;;;;;;2.50;2.00;;;;;;;-0.60;66.19;97308.70;105543;1254;74436;-28
2023/11/28 11:29:25;;;;;;;7.30;4.00;;;;;;;0.08;64.26;97305.69;105688;1258;73392;-27
2023/11/28 11:32:13;;;;;;;6.10;3.40;;;;;;;0.54;62.90;97308.98;105598;1257;72647;-28
2023/11/28 11:34:42;;;;;;;6.20;4.00;;;;;;;0.56;61.89;97309.18;105140;1263;61145;-28
2023/11/28 11:37:13;;;;;;;4.60;3.20;;;;;;;0.40;62.13;97304.96;105146;1260;61274;-28
2023/11/28 11:39:41;;;;;;;7.80;3.30;;;;;;;0.23;63.02;97302.36;105204;1257;73428;-27
2023/11/28 11:42:27;;;;;;;11.40;4.00;;;;;;;0.05;63.47;97298.25;105291;1264;74248;-27
2023/11/28 11:45:05;;;;;;;5.20;3.40;;;;;;;-0.13;64.49;97299.90;105205;1262;72460;-27
2023/11/28 11:47:35;;;;;;;5.60;3.60;;;;;;;-0.23;65.26;97296.45;105256;1256;61279;-27
2023/11/28 11:50:07;;;;;;;8.60;3.20;;;;;;;-0.27;65.67;97300.00;105121;1263;61204;-27
2023/11/28 11:52:36;;;;;;;5.80;3.20;;;;;;;-0.33;66.69;97298.15;105439;1260;74461;-25
2023/11/28 11:55:07;;;;;;;6.30;3.60;;;;;;;-0.38;67.32;97292.16;105567;1260;73587;-28
2023/11/28 11:57:35;;;;;;;9.80;4.90;;;;;;;-0.41;68.45;97290.50;105308;1264;72545;-28
2023/11/28 12:00:07;;;;;;;5.20;3.60;;;;;;;-0.44;68.29;97288.13;105214;1258;61097;-27
2023/11/28 12:02:40;;;;;;;4.70;3.00;;;;;;;-0.50;68.57;97282.53;105218;1257;61764;-27
2023/11/28 12:05:10;;;;;;;7.40;4.00;;;;;;;0.06;68.08;97278.20;105198;1254;73988;-27
2023/11/28 12:07:42;;;;;;;3.20;2.40;;;;;;;0.50;66.47;97277.64;105653;1254;75742;-27
2023/11/28 12:10:11;;;;;;;4.00;3.00;;;;;;;0.46;66.01;97273.50;105637;1254;74092;-27
2023/11/28 12:12:39;;;;;;;3.70;2.80;;;;;;;0.31;66.65;97269.20;105620;1253;61081;-26
2023/11/28 12:15:08;;;;;;;14.00;3.80;;;;;;;0.16;67.10;97264.71;105575;1254;60965;-26
2023/11/28 12:17:37;;;;;;;8.80;3.90;;;;;;;0.04;67.27;97260.09;105771;1259;75261;-26
2023/11/28 12:20:06;;;;;;;7.00;4.80;;;;;;;-0.20;68.09;97249.52;105718;1254;75596;-27
2023/11/28 12:22:34;;;;;;;5.90;3.70;;;;;;;-0.35;69.23;97244.91;105743;1257;71575;-26